createdAt,value
2023-04-09T00:30:04.893Z,100.00
2023-04-09T00:40:06.989Z,100.00
2023-04-09T00:50:08.968Z,100.00
2023-04-09T00:55:05.787Z,100.00
2023-04-09T00:59:57.620Z,100.00
2023-04-09T01:04:52.490Z,100.00
2023-04-09T01:09:57.461Z,100.00
2023-04-09T01:15:19.048Z,100.00
2023-04-09T01:26:08.060Z,100.00
2023-04-09T01:36:14.661Z,100.00
2023-04-09T01:41:08.760Z,100.00
2023-04-09T01:51:09.396Z,100.00
2023-04-09T01:56:03.560Z,100.00
2023-04-09T02:01:13.519Z,100.00
2023-04-09T02:11:38.164Z,100.00
2023-04-09T02:16:32.636Z,100.00
2023-04-09T02:21:24.378Z,100.00
2023-04-09T02:26:16.175Z,100.00
2023-04-09T02:31:08.133Z,100.00
2023-04-09T02:35:59.851Z,100.00
2023-04-09T02:40:51.578Z,100.00
2023-04-09T02:45:43.253Z,100.00
2023-04-09T02:50:35.017Z,100.00
2023-04-09T02:55:26.830Z,100.00
2023-04-09T03:00:18.503Z,100.00
2023-04-09T03:05:10.445Z,100.00
2023-04-09T03:10:02.115Z,100.00
2023-04-09T03:14:53.915Z,100.00
2023-04-09T03:19:45.634Z,100.00
2023-04-09T03:24:37.390Z,100.00
2023-04-09T03:29:29.052Z,100.00
2023-04-09T03:34:20.910Z,100.00
2023-04-09T03:39:12.578Z,100.00
2023-04-09T03:44:04.369Z,100.00
2023-04-09T03:48:56.039Z,100.00
2023-04-09T03:53:47.713Z,100.00
2023-04-09T03:58:39.382Z,100.00
2023-04-09T04:03:31.785Z,100.00
2023-04-09T04:08:23.607Z,100.00
2023-04-09T04:13:15.318Z,100.00
2023-04-09T04:18:07.033Z,100.00
2023-04-09T04:22:58.939Z,100.00
2023-04-09T04:27:51.840Z,100.00
2023-04-09T04:32:43.971Z,100.00
2023-04-09T04:37:35.852Z,100.00
2023-04-09T04:42:27.549Z,100.00
2023-04-09T04:47:23.059Z,100.00
2023-04-09T04:52:17.883Z,100.00
2023-04-09T04:57:10.454Z,100.00
2023-04-09T05:02:02.588Z,100.00
2023-04-09T05:06:55.272Z,100.00
2023-04-09T05:11:46.995Z,100.00
2023-04-09T05:16:38.919Z,100.00
2023-04-09T05:21:31.835Z,100.00
2023-04-09T05:26:23.826Z,100.00
2023-04-09T05:31:16.136Z,94.32
2023-04-09T05:36:08.687Z,89.18
2023-04-09T05:41:04.302Z,84.03
2023-04-09T05:51:01.665Z,77.88
2023-04-09T05:55:53.365Z,73.16
2023-04-09T06:00:45.633Z,70.28
2023-04-09T06:05:37.800Z,71.18
2023-04-09T06:10:32.018Z,70.52
2023-04-09T06:15:24.405Z,69.48
2023-04-09T06:20:19.890Z,69.09
2023-04-09T06:25:12.215Z,71.29
2023-04-09T06:30:04.941Z,72.32
2023-04-09T06:34:57.550Z,73.98
2023-04-09T06:40:00.678Z,76.06
2023-04-09T06:44:53.914Z,77.09
2023-04-09T06:49:46.456Z,80.07
2023-04-09T06:59:46.330Z,83.14
2023-04-09T07:14:52.165Z,83.14
2023-04-09T07:19:44.235Z,82.31
2023-04-09T07:24:36.228Z,80.57
2023-04-09T07:29:28.612Z,83.84
2023-04-09T07:34:24.850Z,83.47
2023-04-09T07:39:20.265Z,83.85
2023-04-09T07:44:16.650Z,82.73
2023-04-09T07:49:09.141Z,83.46
2023-04-09T07:54:01.233Z,82.22
2023-04-09T07:58:54.755Z,81.00
2023-04-09T08:03:46.749Z,80.86
2023-04-09T08:08:38.750Z,81.43
2023-04-09T08:13:30.667Z,83.28
2023-04-09T08:18:22.696Z,82.62
2023-04-09T08:23:14.377Z,82.14
2023-04-09T08:28:17.154Z,80.86
2023-04-09T08:33:10.894Z,79.95
2023-04-09T08:38:04.513Z,79.96
2023-04-09T08:48:09.792Z,77.05
2023-04-09T08:53:07.969Z,75.19
2023-04-09T08:57:59.673Z,74.96
2023-04-09T09:03:15.303Z,71.70
2023-04-09T09:08:21.793Z,70.23
2023-04-09T09:13:28.014Z,69.44
2023-04-09T09:18:19.785Z,68.92
2023-04-09T09:23:11.526Z,69.17
2023-04-09T09:28:10.259Z,67.25
2023-04-09T09:33:06.287Z,67.27
2023-04-09T09:38:04.488Z,65.28
2023-04-09T09:42:57.726Z,65.43
2023-04-09T09:47:50.437Z,66.29
2023-04-09T09:52:46.108Z,67.14
2023-04-09T09:57:44.056Z,64.83
2023-04-09T10:02:47.980Z,64.80
2023-04-09T10:07:40.972Z,64.50
2023-04-09T10:12:34.027Z,63.43
2023-04-09T10:17:26.380Z,61.97
2023-04-09T10:22:26.040Z,59.85
2023-04-09T10:27:18.239Z,58.83
2023-04-09T10:32:11.510Z,60.01
2023-04-09T10:37:03.882Z,58.83
2023-04-09T10:41:58.053Z,60.67
2023-04-09T10:46:57.638Z,61.24
2023-04-09T10:52:12.003Z,62.55
2023-04-09T10:57:21.425Z,63.31
2023-04-09T11:02:59.342Z,61.37
2023-04-09T11:08:10.657Z,59.41
2023-04-09T11:13:03.221Z,56.94
2023-04-09T11:17:55.634Z,58.64
2023-04-09T11:22:50.662Z,57.20
2023-04-09T11:27:46.905Z,56.02
2023-04-09T11:32:38.859Z,55.89
2023-04-09T11:37:30.834Z,54.03
2023-04-09T11:42:22.552Z,54.70
2023-04-09T11:47:17.172Z,54.26
2023-04-09T11:52:09.368Z,55.31
2023-04-09T11:57:03.740Z,55.82
2023-04-09T12:01:58.579Z,57.37
2023-04-09T12:06:50.717Z,57.82
2023-04-09T12:11:48.259Z,55.56
2023-04-09T12:16:44.547Z,56.16
2023-04-09T12:22:08.719Z,52.86
2023-04-09T12:27:01.491Z,50.57
2023-04-09T12:31:53.982Z,47.97
2023-04-09T12:36:45.754Z,48.98
2023-04-09T12:41:37.590Z,48.11
2023-04-09T12:46:29.426Z,48.74
2023-04-09T12:51:21.255Z,49.14
2023-04-09T12:56:13.113Z,48.91
2023-04-09T13:01:05.279Z,50.22
2023-04-09T13:05:57.427Z,49.26
2023-04-09T13:10:49.570Z,47.37
2023-04-09T13:15:46.159Z,47.58
2023-04-09T13:20:37.865Z,46.94
2023-04-09T13:25:29.748Z,45.60
2023-04-09T13:30:24.433Z,46.49
2023-04-09T13:35:16.200Z,47.19
2023-04-09T13:40:09.069Z,46.31
2023-04-09T13:45:00.909Z,47.69
2023-04-09T13:49:53.057Z,46.93
2023-04-09T13:54:44.763Z,47.71
2023-04-09T13:59:37.995Z,47.92
2023-04-09T14:04:30.276Z,46.75
2023-04-09T14:09:22.059Z,46.23
2023-04-09T14:14:13.733Z,46.41
2023-04-09T14:19:06.363Z,44.64
2023-04-09T14:23:58.066Z,45.06
2023-04-09T14:28:51.630Z,44.40
2023-04-09T14:33:43.647Z,44.28
2023-04-09T14:38:35.371Z,43.59
2023-04-09T14:43:28.134Z,43.60
2023-04-09T14:48:20.199Z,44.54
2023-04-09T14:53:16.641Z,44.47
2023-04-09T14:58:09.719Z,44.30
2023-04-09T15:03:02.297Z,43.50
2023-04-09T15:07:59.636Z,44.52
2023-04-09T15:12:51.773Z,43.68
2023-04-09T15:17:52.250Z,43.31
2023-04-09T15:22:44.001Z,43.78
2023-04-09T15:27:35.903Z,43.73
2023-04-09T15:32:29.748Z,44.16
2023-04-09T15:42:37.385Z,43.75
2023-04-09T15:57:47.955Z,44.06
2023-04-09T16:18:08.776Z,43.02
2023-04-09T16:33:29.520Z,43.21
2023-04-09T16:38:34.662Z,43.52
2023-04-09T16:43:34.765Z,43.75
2023-04-09T16:48:52.063Z,43.70
2023-04-09T16:53:44.031Z,43.70
2023-04-09T16:58:35.755Z,44.21
2023-04-09T17:03:28.050Z,44.35
2023-04-09T17:08:24.306Z,44.43
2023-04-09T17:13:16.307Z,44.28
2023-04-09T17:18:07.991Z,45.17
2023-04-09T17:22:59.892Z,46.01
2023-04-09T17:27:51.691Z,45.90
2023-04-09T17:53:27.519Z,47.87
2023-04-09T17:58:20.582Z,48.38
2023-04-09T18:29:10.126Z,51.47
2023-04-09T18:39:09.588Z,53.22
2023-04-09T18:44:02.234Z,53.95
2023-04-09T19:04:12.862Z,55.36
2023-04-09T19:09:05.725Z,56.27
2023-04-09T19:13:58.219Z,57.27
2023-04-09T19:18:50.487Z,58.04
2023-04-09T19:23:43.299Z,58.84
2023-04-09T19:28:35.776Z,59.51
2023-04-09T19:33:29.398Z,60.40
2023-04-09T19:38:26.038Z,61.30
2023-04-09T19:43:17.782Z,61.69
2023-04-09T19:48:11.942Z,62.35
2023-04-09T19:53:07.078Z,63.70
2023-04-09T19:57:59.175Z,63.89
2023-04-09T20:02:55.669Z,64.89
2023-04-09T20:07:51.008Z,65.40
2023-04-09T20:18:14.116Z,66.72
2023-04-09T20:23:15.727Z,67.85
2023-04-09T20:33:21.302Z,66.92
2023-04-09T20:38:21.665Z,67.49
2023-04-09T20:43:14.446Z,68.99
2023-04-09T20:48:07.812Z,68.95
2023-04-09T20:53:00.610Z,70.49
2023-04-09T20:57:56.408Z,69.85
2023-04-09T21:07:54.874Z,70.31
2023-04-09T21:12:46.884Z,70.39
2023-04-09T21:17:40.040Z,69.10
2023-04-09T21:22:33.637Z,69.46
2023-04-09T21:27:25.434Z,70.48
2023-04-09T21:32:31.336Z,70.18
2023-04-09T21:42:42.648Z,71.98
2023-04-09T21:47:44.806Z,72.09
2023-04-09T21:52:37.273Z,73.96
2023-04-09T21:57:36.882Z,76.26
2023-04-09T22:02:48.723Z,76.45
2023-04-09T22:07:46.125Z,77.61
2023-04-09T22:17:44.545Z,79.48
2023-04-09T22:22:40.320Z,79.68
2023-04-09T22:27:33.792Z,80.54
2023-04-09T22:32:27.164Z,81.43
2023-04-09T22:42:25.981Z,82.60
2023-04-09T22:57:32.226Z,85.38
2023-04-09T23:02:24.785Z,86.44
2023-04-09T23:07:17.527Z,88.31
2023-04-09T23:12:09.982Z,88.34
2023-04-09T23:17:08.008Z,89.05
2023-04-09T23:22:02.458Z,89.57
2023-04-09T23:26:56.399Z,90.28
2023-04-09T23:31:48.533Z,91.23
2023-04-09T23:36:41.340Z,91.75
2023-04-09T23:41:33.736Z,92.01
2023-04-09T23:46:29.273Z,90.74
2023-04-09T23:51:24.646Z,90.75
2023-04-09T23:56:17.354Z,91.69
